Time;durP1;ratioP1;P1;durP2;ratioP2;P2;SDS_P1;SDS_P2;PMS_P1;PMS_P2;Temp;Humidity;BMP_temperature;BMP_pressure;BME280_temperature;BME280_humidity;BME280_pressure;Samples;Min_cycle;Max_cycle;Signal;HPM_P1;HPM_P2
2023/01/06 00:01:30;;;;;;;13.20;7.25;;;281.60;2278.40;;;;;;5028797;28;20029;-79
2023/01/06 00:03:57;;;;;;;14.23;6.93;;;256.90;2252.80;;;;;;5028251;28;20042;-77
2023/01/06 00:06:35;;;;;;;10.07;5.80;;;281.70;2278.40;;;;;;5027289;28;20025;-79
2023/01/06 00:09:03;;;;;;;14.75;7.40;;;256.90;2252.80;;;;;;5022111;28;20025;-79
2023/01/06 00:11:30;;;;;;;12.02;6.70;;;256.90;2252.80;;;;;;5021769;28;20038;-78
2023/01/06 00:13:58;;;;;;;17.17;6.45;;;256.80;2252.80;;;;;;5031122;28;20044;-79
2023/01/06 00:16:24;;;;;;;10.88;6.03;;;256.80;2252.80;;;;;;5033768;28;20029;-80
2023/01/06 00:18:57;;;;;;;13.23;5.55;;;256.80;2252.80;;;;;;5034059;28;20032;-80
2023/01/06 00:21:23;;;;;;;13.85;5.90;;;256.80;2252.80;;;;;;5029161;28;20030;-80
2023/01/06 00:23:49;;;;;;;9.35;5.68;;;256.70;2252.80;;;;;;5031598;28;20026;-80
2023/01/06 00:26:15;;;;;;;9.02;4.88;;;256.80;2252.80;;;;;;5030327;28;20010;-79
2023/01/06 00:28:41;;;;;;;;;;;256.70;2252.80;;;;;;5030224;28;20056;-81
2023/01/06 00:32:16;;;;;;;14.25;5.72;;;256.70;2252.80;;;;;;5028738;28;19915;-80
2023/01/06 00:34:30;;;;;;;10.73;5.20;;;256.60;2252.80;;;;;;5036195;28;20483;-79
2023/01/06 00:37:16;;;;;;;12.30;4.93;;;256.60;2252.80;;;;;;5028799;28;20048;-79
2023/01/06 00:39:42;;;;;;;10.80;5.53;;;256.70;2252.80;;;;;;5008992;28;20062;-79
2023/01/06 00:42:07;;;;;;;10.70;5.10;;;256.60;2252.80;;;;;;5009167;28;20076;-79
2023/01/06 00:44:38;;;;;;;10.80;4.55;;;256.60;2252.80;;;;;;5030614;28;20085;-78
2023/01/06 00:47:06;;;;;;;13.55;4.97;;;256.60;2252.80;;;;;;5049389;28;20022;-79
2023/01/06 00:49:32;;;;;;;8.13;4.50;;;256.60;2252.80;;;;;;5032936;28;20391;-79
2023/01/06 00:51:58;;;;;;;8.40;4.70;;;256.50;2252.80;;;;;;5033016;28;20044;-79
2023/01/06 00:54:24;;;;;;;7.95;4.55;;;256.40;2252.80;;;;;;5032599;28;20022;-79
2023/01/06 00:56:51;;;;;;;7.85;4.43;;;256.30;2252.80;;;;;;5025797;28;20108;-78
2023/01/06 00:59:21;;;;;;;8.95;4.03;;;256.60;2252.80;;;;;;5035890;28;20052;-78
2023/01/06 01:01:48;;;;;;;11.55;5.40;;;256.10;2252.80;;;;;;5032474;28;20073;-79
2023/01/06 01:04:15;;;;;;;10.07;4.60;;;256.10;2252.80;;;;;;5032553;28;20017;-79
2023/01/06 01:06:42;;;;;;;9.30;5.57;;;256.10;2252.80;;;;;;5035981;28;20071;-79
2023/01/06 01:09:15;;;;;;;11.55;5.25;;;231.30;2252.80;;;;;;5038192;28;20027;-79
2023/01/06 01:14:25;;;;;;;13.20;5.43;;;231.00;2252.80;;;;;;5059831;28;20037;-79
2023/01/06 01:17:00;;;;;;;12.95;5.90;;;230.90;2252.80;;;;;;5051491;28;20026;-79
2023/01/06 01:19:27;;;;;;;16.70;5.93;;;230.90;2252.80;;;;;;5034777;28;20109;-79
2023/01/06 01:21:52;;;;;;;11.15;5.60;;;230.90;2252.80;;;;;;5028958;28;20025;-78
2023/01/06 01:24:19;;;;;;;10.32;4.47;;;230.90;2252.80;;;;;;5031727;28;20030;-79
2023/01/06 01:26:45;;;;;;;11.10;5.05;;;230.90;2252.80;;;;;;5034325;28;20021;-79
2023/01/06 01:29:12;;;;;;;9.07;4.93;;;230.90;2252.80;;;;;;5032576;28;20117;-79
2023/01/06 01:31:39;;;;;;;12.23;4.47;;;230.90;2252.80;;;;;;5031922;28;20037;-79
2023/01/06 01:34:04;;;;;;;8.85;4.45;;;230.90;2252.80;;;;;;5033305;28;20040;-79
2023/01/06 01:36:31;;;;;;;12.05;4.05;;;231.10;2252.80;;;;;;5049994;28;20053;-80
2023/01/06 01:38:58;;;;;;;8.05;4.30;;;231.20;2252.80;;;;;;5033250;28;20029;-79
2023/01/06 01:41:25;;;;;;;7.53;4.25;;;231.30;2252.80;;;;;;5031664;28;20093;-80
2023/01/06 01:44:20;;;;;;;9.23;4.85;;;231.30;2252.80;;;;;;5048992;28;20017;-80
2023/01/06 01:46:49;;;;;;;7.30;3.30;;;231.20;2252.80;;;;;;5020388;28;20034;-80
2023/01/06 01:49:25;;;;;;;9.13;3.80;;;231.20;2252.80;;;;;;5031394;28;20056;-80
2023/01/06 01:51:54;;;;;;;;;;;231.30;2252.80;;;;;;5031507;28;20487;-79
2023/01/06 01:54:33;;;;;;;7.40;3.47;;;256.00;2252.80;;;;;;5030722;28;19968;-80
2023/01/06 01:57:05;;;;;;;6.40;3.13;;;256.10;2252.80;;;;;;5030799;28;20054;-80
2023/01/06 01:59:39;;;;;;;7.13;2.65;;;256.10;2252.80;;;;;;5031292;28;20044;-80
2023/01/06 02:02:05;;;;;;;9.40;2.97;;;256.00;2252.80;;;;;;5031503;28;20048;-79
2023/01/06 02:04:35;;;;;;;9.88;3.42;;;256.10;2252.80;;;;;;5030741;28;20025;-80
2023/01/06 02:07:03;;;;;;;7.57;3.13;;;256.10;2252.80;;;;;;5024931;28;20347;-79
2023/01/06 02:09:51;;;;;;;5.07;3.00;;;256.10;2252.80;;;;;;5023340;28;20051;-80
2023/01/06 02:12:17;;;;;;;6.53;3.08;;;256.10;2252.80;;;;;;5019239;28;20046;-80
2023/01/06 02:14:42;;;;;;;8.95;3.40;;;256.00;2252.80;;;;;;5032091;28;20044;-80
2023/01/06 02:17:38;;;;;;;7.35;3.53;;;256.00;2252.80;;;;;;5030989;28;20032;-80
2023/01/06 02:20:25;;;;;;;12.25;4.75;;;256.00;2252.80;;;;;;5024839;28;20021;-80
2023/01/06 02:23:21;;;;;;;18.20;6.78;;;231.30;2252.80;;;;;;5025017;28;20032;-81
2023/01/06 02:26:09;;;;;;;19.27;8.50;;;231.30;2252.80;;;;;;5027900;28;20097;-80
2023/01/06 02:28:59;;;;;;;26.63;11.00;;;231.20;2252.80;;;;;;5031379;28;20053;-80
2023/01/06 02:32:02;;;;;;;36.65;13.57;;;231.20;2252.80;;;;;;5031342;28;20041;-80
2023/01/06 02:34:40;;;;;;;22.65;9.30;;;231.20;2252.80;;;;;;5048882;28;20021;-80
2023/01/06 02:37:31;;;;;;;11.32;5.97;;;230.90;2252.80;;;;;;5014696;28;20052;-80
2023/01/06 02:40:20;;;;;;;12.10;5.80;;;230.90;2252.80;;;;;;5023535;28;20037;-80
2023/01/06 02:42:55;;;;;;;8.57;4.90;;;230.70;2252.80;;;;;;5048610;28;20022;-80
2023/01/06 02:45:36;;;;;;;9.73;4.20;;;230.70;2252.80;;;;;;5025158;28;20026;-80
2023/01/06 02:48:20;;;;;;;12.63;4.85;;;230.70;2252.80;;;;;;5028191;28;20025;-80
2023/01/06 02:50:56;;;;;;;9.35;4.60;;;230.60;2252.80;;;;;;5030537;28;20021;-80
2023/01/06 02:53:31;;;;;;;8.98;4.22;;;230.60;2252.80;;;;;;5014909;28;20042;-80
2023/01/06 02:55:57;;;;;;;11.23;4.07;;;230.60;2252.80;;;;;;5017298;28;20053;-79
2023/01/06 02:58:23;;;;;;;13.38;3.97;;;230.50;2252.80;;;;;;5027493;28;20048;-81
2023/01/06 03:00:57;;;;;;;9.02;3.95;;;230.50;2252.80;;;;;;5016369;28;20483;-80
2023/01/06 03:03:28;;;;;;;9.23;3.97;;;230.50;2252.80;;;;;;5030259;28;20044;-81
2023/01/06 03:05:58;;;;;;;10.02;4.25;;;230.50;2252.80;;;;;;5030180;28;20100;-80
2023/01/06 03:08:27;;;;;;;11.77;4.03;;;230.50;2252.80;;;;;;5029780;28;20026;-80
2023/01/06 03:10:55;;;;;;;6.82;3.33;;;230.50;2252.80;;;;;;5029178;28;20088;-79
2023/01/06 03:13:34;;;;;;;9.07;3.05;;;230.50;2252.80;;;;;;5047373;28;20033;-79
2023/01/06 03:16:03;;;;;;;6.80;3.05;;;230.40;2252.80;;;;;;5029472;28;20025;-79
2023/01/06 03:18:30;;;;;;;6.28;3.08;;;205.70;2252.80;;;;;;5029830;28;20072;-79
2023/01/06 03:21:01;;;;;;;7.10;2.53;;;205.70;2252.80;;;;;;5030617;28;20045;-79
2023/01/06 03:23:27;;;;;;;8.25;2.83;;;205.70;2252.80;;;;;;5029783;28;20026;-79
2023/01/06 03:25:53;;;;;;;6.50;2.75;;;205.70;2252.80;;;;;;5047317;28;20028;-79
2023/01/06 03:28:18;;;;;;;6.60;2.67;;;230.40;2252.80;;;;;;5029576;28;20446;-80
2023/01/06 03:30:52;;;;;;;;;;;230.40;2252.80;;;;;;5047748;28;20034;-80
2023/01/06 03:33:44;;;;;;;10.63;2.60;;;230.40;2252.80;;;;;;5029293;28;19939;-80
2023/01/06 03:36:26;;;;;;;8.48;2.55;;;230.40;2252.80;;;;;;5029971;28;20048;-79
2023/01/06 03:39:14;;;;;;;4.57;2.47;;;230.50;2252.80;;;;;;5029236;28;20025;-80
2023/01/06 03:44:58;;;;;;;9.50;2.63;;;230.60;2252.80;;;;;;5047071;28;20064;-79
2023/01/06 03:47:36;;;;;;;6.60;3.35;;;230.60;2252.80;;;;;;5030464;28;20033;-80
2023/01/06 03:50:18;;;;;;;6.65;2.83;;;230.60;2252.80;;;;;;5030532;28;20021;-80
2023/01/06 03:53:02;;;;;;;5.78;2.63;;;230.60;2252.80;;;;;;5047918;28;20092;-84
2023/01/06 03:55:32;;;;;;;6.13;2.67;;;230.50;2252.80;;;;;;5030573;28;20025;-80
2023/01/06 03:58:01;;;;;;;5.55;2.60;;;230.50;2252.80;;;;;;5029397;28;20033;-80
2023/01/06 04:00:34;;;;;;;6.88;2.40;;;230.40;2252.80;;;;;;5047628;28;20041;-82
2023/01/06 04:03:04;;;;;;;6.82;3.15;;;230.40;2252.80;;;;;;5030302;28;20022;-82
2023/01/06 04:05:39;;;;;;;11.15;3.30;;;230.40;2252.80;;;;;;5030975;28;20029;-83
2023/01/06 04:08:05;;;;;;;6.57;2.67;;;230.40;2252.80;;;;;;5031015;28;20044;-83
2023/01/06 04:10:33;;;;;;;;;;;205.70;2252.80;;;;;;5031037;28;20120;-80
2023/01/06 04:12:59;;;;;;;7.60;3.10;;;205.70;2252.80;;;;;;5030358;28;19913;-81
2023/01/06 04:15:28;;;;;;;5.63;2.97;;;205.70;2252.80;;;;;;5029764;28;20407;-79
2023/01/06 04:17:54;;;;;;;5.70;3.53;;;205.60;2252.80;;;;;;5029902;28;20029;-79
2023/01/06 04:20:27;;;;;;;9.68;3.00;;;205.60;2252.80;;;;;;5030417;28;20022;-79
2023/01/06 04:22:53;;;;;;;7.57;2.80;;;205.60;2252.80;;;;;;5029821;28;20014;-80
2023/01/06 04:25:20;;;;;;;6.15;2.67;;;205.70;2252.80;;;;;;5029449;28;20036;-79
2023/01/06 04:27:48;;;;;;;9.75;3.67;;;205.70;2252.80;;;;;;5029439;28;20028;-80
2023/01/06 04:30:14;;;;;;;8.77;3.88;;;205.70;2252.80;;;;;;5030140;28;20034;-80
2023/01/06 04:32:40;;;;;;;10.35;3.33;;;205.70;2252.80;;;;;;5029372;28;20029;-80
2023/01/06 04:35:07;;;;;;;11.40;3.38;;;205.70;2252.80;;;;;;5029685;28;20037;-81
2023/01/06 04:37:33;;;;;;;8.00;3.40;;;230.50;2252.80;;;;;;5047226;28;20025;-79
2023/01/06 04:39:59;;;;;;;8.98;3.63;;;205.60;2252.80;;;;;;5029030;28;20033;-80
2023/01/06 04:42:24;;;;;;;7.68;3.65;;;205.60;2252.80;;;;;;5028921;28;20030;-80
2023/01/06 04:44:50;;;;;;;10.93;3.80;;;205.60;2252.80;;;;;;5029186;28;20042;-80
2023/01/06 04:47:16;;;;;;;;;;;205.50;2252.80;;;;;;5029411;28;20033;-79
2023/01/06 04:49:41;;;;;;;8.60;3.63;;;205.60;2252.80;;;;;;5028946;28;19905;-78
2023/01/06 04:52:07;;;;;;;8.63;4.15;;;205.60;2252.80;;;;;;5027832;28;20041;-78
2023/01/06 04:54:33;;;;;;;;;;;205.60;2252.80;;;;;;5029223;28;20505;-78
2023/01/06 04:56:59;;;;;;;8.20;3.75;;;205.70;2252.80;;;;;;5046837;28;19924;-82
2023/01/06 04:59:25;;;;;;;10.98;4.88;;;205.70;2252.80;;;;;;5033085;28;20104;-81
2023/01/06 05:01:50;;;;;;;;;;;205.70;2252.80;;;;;;5032432;28;20021;-80
2023/01/06 05:04:16;;;;;;;9.30;4.57;;;230.50;2252.80;;;;;;5032710;28;19968;-80
2023/01/06 05:06:42;;;;;;;6.07;3.55;;;230.40;2252.80;;;;;;5033300;28;20057;-80
2023/01/06 05:09:08;;;;;;;9.02;3.90;;;230.40;2252.80;;;;;;5050020;28;20541;-80
2023/01/06 05:11:34;;;;;;;18.52;4.53;;;230.40;2252.80;;;;;;5032700;28;20105;-80
2023/01/06 05:14:00;;;;;;;;;;;230.50;2252.80;;;;;;5033054;28;20036;-80
2023/01/06 05:16:33;;;;;;;11.80;5.10;;;230.40;2252.80;;;;;;5032770;28;20354;-80
2023/01/06 05:19:00;;;;;;;11.52;4.40;;;205.70;2252.80;;;;;;5032398;28;20045;-80
2023/01/06 05:21:28;;;;;;;6.38;4.18;;;205.60;2252.80;;;;;;5032890;28;20022;-80
2023/01/06 05:23:55;;;;;;;12.65;5.15;;;205.50;2252.80;;;;;;5032008;28;20043;-81
2023/01/06 05:26:23;;;;;;;12.40;5.50;;;205.50;2252.80;;;;;;5031425;28;20026;-80
2023/01/06 05:28:49;;;;;;;11.60;4.97;;;205.40;2252.80;;;;;;5033368;28;20029;-80
2023/01/06 05:31:15;;;;;;;9.95;5.13;;;205.40;2252.80;;;;;;5032928;28;20072;-79
2023/01/06 05:33:41;;;;;;;;;;;205.40;2252.80;;;;;;5050012;28;20030;-79
2023/01/06 05:36:13;;;;;;;11.55;4.40;;;205.40;2252.80;;;;;;5032893;28;19916;-79
2023/01/06 05:38:39;;;;;;;10.63;5.30;;;205.30;2252.80;;;;;;5032826;28;20089;-80
2023/01/06 05:41:05;;;;;;;13.27;5.18;;;205.40;2252.80;;;;;;5031601;28;20112;-80
2023/01/06 05:43:33;;;;;;;14.63;4.65;;;205.60;2252.80;;;;;;5050480;28;20032;-80
2023/01/06 05:46:07;;;;;;;10.43;5.63;;;205.60;2252.80;;;;;;5032735;28;20024;-80
2023/01/06 05:48:32;;;;;;;12.80;5.35;;;205.60;2252.80;;;;;;5029943;28;20479;-80
2023/01/06 05:51:03;;;;;;;13.25;4.43;;;205.70;2252.80;;;;;;5049723;28;20029;-80
2023/01/06 05:53:37;;;;;;;12.27;5.28;;;205.70;2252.80;;;;;;5049897;28;20029;-81
2023/01/06 05:56:05;;;;;;;10.23;4.47;;;205.70;2252.80;;;;;;5049940;28;20048;-81
2023/01/06 05:58:32;;;;;;;14.35;4.90;;;205.70;2252.80;;;;;;5032129;28;20048;-81
2023/01/06 06:00:58;;;;;;;12.20;4.65;;;205.70;2252.80;;;;;;5032293;28;20056;-81
2023/01/06 06:03:24;;;;;;;12.27;4.65;;;205.60;2252.80;;;;;;5049954;28;20487;-86
2023/01/06 06:05:50;;;;;;;;;;;205.60;2252.80;;;;;;5050022;28;20052;-78
2023/01/06 06:08:16;;;;;;;12.20;4.18;;;205.70;2252.80;;;;;;5049219;28;19905;-79
2023/01/06 06:10:42;;;;;;;;;;;205.60;2252.80;;;;;;5032073;28;20041;-80
2023/01/06 06:13:08;;;;;;;17.90;7.18;;;205.60;2252.80;;;;;;5032006;28;19913;-78
2023/01/06 06:15:33;;;;;;;;;;;205.60;2252.80;;;;;;5049297;28;20026;-80
2023/01/06 06:18:03;;;;;;;10.63;6.10;;;205.60;2252.80;;;;;;5031005;28;19940;-79
2023/01/06 06:20:29;;;;;;;14.68;6.95;;;205.60;2252.80;;;;;;5028888;28;20025;-79
2023/01/06 06:22:55;;;;;;;14.10;7.18;;;205.60;2252.80;;;;;;5031293;28;20044;-79
2023/01/06 06:25:23;;;;;;;;;;;205.60;2252.80;;;;;;5049346;28;20037;-79
2023/01/06 06:27:48;;;;;;;12.40;6.40;;;205.70;2252.80;;;;;;5030792;28;19909;-80
2023/01/06 06:30:15;;;;;;;;;;;205.70;2252.80;;;;;;5031167;28;20068;-79
2023/01/06 06:32:41;;;;;;;11.90;5.57;;;205.70;2252.80;;;;;;5030584;28;19913;-79
2023/01/06 06:35:07;;;;;;;11.43;5.40;;;205.60;2252.80;;;;;;5048580;28;20044;-79
2023/01/06 06:37:33;;;;;;;;;;;205.70;2252.80;;;;;;5030707;28;20022;-79
2023/01/06 06:39:58;;;;;;;12.75;4.53;;;205.60;2252.80;;;;;;5031361;28;19912;-81
2023/01/06 06:42:24;;;;;;;;;;;205.50;2252.80;;;;;;5048774;28;20081;-79
2023/01/06 06:44:52;;;;;;;11.45;4.60;;;205.50;2252.80;;;;;;5030472;28;19905;-78
2023/01/06 06:47:18;;;;;;;8.95;4.43;;;205.40;2252.80;;;;;;5030513;28;20100;-79
2023/01/06 06:49:44;;;;;;;8.80;5.18;;;205.50;2252.80;;;;;;5031403;28;20045;-80
2023/01/06 06:52:12;;;;;;;;;;;205.60;2252.80;;;;;;5030913;28;20033;-80
2023/01/06 06:54:40;;;;;;;13.70;6.75;;;205.60;2252.80;;;;;;5031840;28;19912;-80
2023/01/06 06:57:05;;;;;;;28.40;15.05;;;205.60;2252.80;;;;;;5030748;28;20129;-79
2023/01/06 06:59:34;;;;;;;16.45;8.60;;;205.60;2252.80;;;;;;5031292;28;20044;-80
2023/01/06 07:02:04;;;;;;;25.98;12.27;;;205.70;2252.80;;;;;;5029848;28;20071;-81
2023/01/06 07:04:35;;;;;;;20.30;12.30;;;205.70;2252.80;;;;;;5033100;28;20034;-84
2023/01/06 07:07:01;;;;;;;23.77;11.55;;;205.70;2252.80;;;;;;5032937;28;20376;-78
2023/01/06 07:09:29;;;;;;;21.27;10.10;;;230.40;2252.80;;;;;;5025867;28;20125;-86
2023/01/06 07:11:54;;;;;;;17.35;7.38;;;230.50;2252.80;;;;;;5035281;28;20037;-87
2023/01/06 07:14:20;;;;;;;13.00;5.80;;;230.50;2252.80;;;;;;5036334;28;20051;-85
2023/01/06 07:16:48;;;;;;;15.60;7.90;;;230.60;2252.80;;;;;;5031669;28;20556;-83
2023/01/06 07:19:14;;;;;;;20.33;7.15;;;230.60;2252.80;;;;;;5024275;28;20021;-83
2023/01/06 07:21:39;;;;;;;14.13;6.97;;;230.70;2252.80;;;;;;5026102;28;20040;-87
2023/01/06 07:24:05;;;;;;;19.60;8.82;;;230.80;2252.80;;;;;;5032404;28;20022;-83
2023/01/06 07:26:31;;;;;;;;;;;230.90;2252.80;;;;;;5044223;28;20025;-83
2023/01/06 07:28:56;;;;;;;21.05;9.18;;;231.00;2252.80;;;;;;5033815;28;19987;-80
2023/01/06 07:31:22;;;;;;;;;;;231.10;2252.80;;;;;;5047772;28;20042;-84
2023/01/06 07:33:48;;;;;;;14.90;6.70;;;231.20;2252.80;;;;;;5048655;28;19905;-81
2023/01/06 07:36:13;;;;;;;;;;;231.30;2252.80;;;;;;5031344;28;20029;-79
2023/01/06 07:38:39;;;;;;;14.10;6.03;;;231.20;2252.80;;;;;;5030152;28;19905;-80
2023/01/06 07:41:04;;;;;;;;;;;231.20;2252.80;;;;;;5065479;28;20118;-80
2023/01/06 07:43:30;;;;;;;29.08;20.05;;;231.20;2252.80;;;;;;5048961;28;19909;-81
2023/01/06 07:45:56;;;;;;;;;;;231.20;2252.80;;;;;;5032028;28;20040;-82
2023/01/06 07:48:21;;;;;;;17.17;7.00;;;231.20;2252.80;;;;;;5033418;28;19909;-83
2023/01/06 07:50:47;;;;;;;;;;;231.20;2252.80;;;;;;5032269;28;20025;-82
2023/01/06 07:53:13;;;;;;;16.55;6.90;;;231.20;2252.80;;;;;;5029312;28;20020;-81
2023/01/06 07:55:38;;;;;;;24.65;10.13;;;231.30;2252.80;;;;;;5030975;28;20037;-81
2023/01/06 07:58:08;;;;;;;16.58;7.45;;;256.00;2252.80;;;;;;5052846;28;20097;-79
2023/01/06 08:00:34;;;;;;;16.77;8.50;;;256.10;2252.80;;;;;;5051238;28;20025;-80
2023/01/06 08:03:05;;;;;;;17.63;7.88;;;256.20;2252.80;;;;;;5030007;28;20025;-81
2023/01/06 08:05:31;;;;;;;15.35;8.93;;;256.20;2252.80;;;;;;5029933;28;20021;-77
2023/01/06 08:07:57;;;;;;;14.32;7.63;;;256.30;2252.80;;;;;;5058000;28;20060;-80
2023/01/06 08:10:22;;;;;;;14.35;6.07;;;256.30;2252.80;;;;;;5029179;28;20026;-77
2023/01/06 08:12:48;;;;;;;;;;;256.40;2252.80;;;;;;5052268;28;20053;-79
2023/01/06 08:15:14;;;;;;;13.23;5.60;;;256.50;2252.80;;;;;;5028856;28;19905;-77
2023/01/06 08:17:40;;;;;;;20.38;7.78;;;256.50;2252.80;;;;;;5035585;28;20026;-78
2023/01/06 08:20:06;;;;;;;14.70;6.00;;;256.50;2252.80;;;;;;5037930;28;20443;-79
2023/01/06 08:22:32;;;;;;;14.27;6.15;;;256.60;2252.80;;;;;;5032386;28;20086;-79
2023/01/06 08:24:58;;;;;;;13.85;6.43;;;256.70;2252.80;;;;;;5030599;28;20041;-80
2023/01/06 08:27:23;;;;;;;;;;;256.70;2252.80;;;;;;5037064;28;20033;-79
2023/01/06 08:29:50;;;;;;;18.95;6.00;;;256.80;2252.80;;;;;;5056751;28;20350;-78
2023/01/06 08:32:16;;;;;;;19.83;5.45;;;256.80;2252.80;;;;;;5057734;28;20041;-78
2023/01/06 08:34:42;;;;;;;17.40;6.75;;;256.90;2252.80;;;;;;5047655;28;20089;-78
2023/01/06 08:37:08;;;;;;;;;;;281.60;2278.40;;;;;;5055878;28;20025;-77
2023/01/06 08:39:33;;;;;;;11.68;5.82;;;281.70;2278.40;;;;;;5056811;28;19905;-77
2023/01/06 08:41:59;;;;;;;12.25;4.65;;;281.70;2278.40;;;;;;5050634;28;20029;-78
2023/01/06 08:44:25;;;;;;;14.63;6.80;;;281.80;2278.40;;;;;;5057306;28;20051;-77
2023/01/06 08:46:50;;;;;;;9.45;5.18;;;281.80;2278.40;;;;;;5052511;28;20479;-78
2023/01/06 08:49:16;;;;;;;11.30;5.28;;;281.80;2278.40;;;;;;5030816;28;20041;-77
2023/01/06 08:51:42;;;;;;;;;;;282.00;2278.40;;;;;;5032237;28;20041;-79
2023/01/06 08:54:13;;;;;;;15.07;4.43;;;282.00;2278.40;;;;;;5031381;28;19987;-79
2023/01/06 08:56:39;;;;;;;11.13;4.82;;;282.00;2278.40;;;;;;5031097;28;20054;-81
2023/01/06 08:59:05;;;;;;;9.48;4.20;;;282.10;2278.40;;;;;;5049340;28;20113;-79
2023/01/06 09:01:36;;;;;;;16.40;5.20;;;282.20;2278.40;;;;;;5045322;28;20411;-79
2023/01/06 09:04:05;;;;;;;12.23;4.47;;;282.30;2278.40;;;;;;5031790;28;20041;-80
2023/01/06 09:06:31;;;;;;;13.50;5.75;;;282.30;2278.40;;;;;;5033209;28;20040;-84
2023/01/06 09:08:57;;;;;;;11.38;4.53;;;282.40;2278.40;;;;;;5034505;28;20041;-82
2023/01/06 09:11:24;;;;;;;11.77;5.28;;;282.50;2278.40;;;;;;5032615;28;20025;-80
2023/01/06 09:13:50;;;;;;;10.93;4.70;;;282.50;2278.40;;;;;;5027217;28;20034;-80
2023/01/06 09:16:16;;;;;;;11.35;5.18;;;307.20;2304.00;;;;;;5024876;28;20033;-80
2023/01/06 09:18:52;;;;;;;9.77;4.50;;;307.30;2304.00;;;;;;5032489;28;20033;-81
2023/01/06 09:21:20;;;;;;;12.13;4.13;;;307.40;2304.00;;;;;;5033417;28;20021;-83
2023/01/06 09:23:46;;;;;;;9.75;4.07;;;307.50;2304.00;;;;;;5056793;28;20032;-85
2023/01/06 09:26:13;;;;;;;10.10;5.25;;;307.50;2304.00;;;;;;5035193;28;20030;-84
2023/01/06 09:28:40;;;;;;;9.85;4.10;;;307.60;2304.00;;;;;;5038346;28;20036;-79
2023/01/06 09:31:09;;;;;;;14.55;5.20;;;307.70;2304.00;;;;;;5032167;28;20053;-79
2023/01/06 09:33:35;;;;;;;13.60;5.80;;;307.80;2304.00;;;;;;5029636;28;20037;-82
2023/01/06 09:36:02;;;;;;;11.75;6.20;;;307.90;2304.00;;;;;;5031337;28;20024;-80
2023/01/06 09:38:28;;;;;;;14.77;5.82;;;307.80;2304.00;;;;;;5031794;28;20097;-81
2023/01/06 09:41:31;;;;;;;13.15;4.05;;;332.90;2329.60;;;;;;5032282;28;20021;-80
2023/01/06 09:44:09;;;;;;;10.32;4.63;;;332.90;2329.60;;;;;;5019163;28;20088;-80
2023/01/06 09:46:38;;;;;;;11.93;6.00;;;333.10;2329.60;;;;;;5031268;28;20098;-79
2023/01/06 09:49:24;;;;;;;20.60;8.07;;;333.10;2329.60;;;;;;5037702;28;20025;-80
2023/01/06 09:52:02;;;;;;;14.55;5.30;;;333.00;2329.60;;;;;;5026948;28;20029;-78
2023/01/06 09:54:35;;;;;;;12.25;6.20;;;333.20;2329.60;;;;;;5031575;28;20045;-79
2023/01/06 09:57:11;;;;;;;8.15;4.43;;;333.40;2329.60;;;;;;5033531;28;20399;-79
2023/01/06 09:59:43;;;;;;;15.15;6.53;;;333.40;2329.60;;;;;;5031340;28;20111;-79
2023/01/06 10:02:28;;;;;;;19.05;8.30;;;333.60;2329.60;;;;;;5022096;28;20477;-79
2023/01/06 10:04:53;;;;;;;10.77;4.70;;;358.40;2329.60;;;;;;5016186;28;20487;-80
2023/01/06 10:07:33;;;;;;;16.02;8.48;;;358.50;2329.60;;;;;;5036533;28;20059;-79
2023/01/06 10:10:04;;;;;;;20.88;9.07;;;358.80;2329.60;;;;;;5022075;28;20044;-80
2023/01/06 10:12:52;;;;;;;12.95;5.35;;;358.80;2329.60;;;;;;5020379;28;20092;-78
2023/01/06 10:15:42;;;;;;;15.15;6.90;;;358.90;2329.60;;;;;;5046908;28;20063;-80
2023/01/06 10:18:22;;;;;;;8.00;4.43;;;358.90;2329.60;;;;;;5022881;28;20041;-81
2023/01/06 10:21:26;;;;;;;14.23;6.65;;;359.10;2278.40;;;;;;5024427;28;20157;-80
2023/01/06 10:24:15;;;;;;;27.33;11.07;;;359.30;2278.40;;;;;;5030266;28;20112;-78
2023/01/06 10:27:12;;;;;;;20.38;8.68;;;359.30;2329.60;;;;;;4914608;29;20041;-80
2023/01/06 10:29:39;;;;;;;12.20;5.35;;;359.20;2329.60;;;;;;4925510;29;20046;-78
2023/01/06 10:32:10;;;;;;;12.40;5.63;;;384.30;2252.80;;;;;;4927496;29;20080;-76
2023/01/06 10:34:36;;;;;;;11.35;5.72;;;384.40;2176.00;;;;;;4924135;29;20083;-76
2023/01/06 10:37:24;;;;;;;14.25;6.30;;;384.40;2176.00;;;;;;4918133;29;20040;-79
2023/01/06 10:40:02;;;;;;;18.08;9.32;;;384.70;2150.40;;;;;;4907231;29;20040;-79
2023/01/06 10:42:56;;;;;;;24.65;12.95;;;384.70;2176.00;;;;;;4917648;29;20032;-79
2023/01/06 10:45:35;;;;;;;9.35;4.10;;;409.70;2099.20;;;;;;4911324;29;20033;-79
2023/01/06 10:48:03;;;;;;;23.58;8.88;;;384.90;1945.60;;;;;;4921615;29;20040;-79
2023/01/06 10:50:29;;;;;;;17.77;8.60;;;409.80;1971.20;;;;;;4906415;29;20541;-77
2023/01/06 10:52:54;;;;;;;24.58;10.20;;;409.80;1894.40;;;;;;4910295;29;20067;-76
2023/01/06 10:55:43;;;;;;;30.80;14.90;;;384.90;1920.00;;;;;;4925151;29;20105;-76
2023/01/06 10:58:23;;;;;;;18.63;6.78;;;409.90;1971.20;;;;;;4933873;29;20047;-76
2023/01/06 11:01:07;;;;;;;17.85;8.93;;;409.60;1920.00;;;;;;4933936;29;20130;-76
2023/01/06 11:03:33;;;;;;;19.05;9.27;;;409.70;1920.00;;;;;;4967766;28;20034;-76
2023/01/06 11:06:26;;;;;;;16.65;9.10;;;409.70;1843.20;;;;;;5016442;28;20017;-78
2023/01/06 11:08:52;;;;;;;13.27;6.53;;;409.90;1868.80;;;;;;5020717;28;20405;-77
2023/01/06 11:11:19;;;;;;;19.13;6.88;;;384.90;1894.40;;;;;;5026984;28;20025;-78
2023/01/06 11:13:48;;;;;;;17.75;7.00;;;384.80;1894.40;;;;;;5007373;28;20033;-78
2023/01/06 11:16:27;;;;;;;11.77;6.45;;;409.60;1920.00;;;;;;5000092;28;20420;-80
2023/01/06 11:18:56;;;;;;;16.38;5.90;;;409.80;1894.40;;;;;;4998896;28;20467;-77
2023/01/06 11:21:35;;;;;;;8.57;4.78;;;409.80;1920.00;;;;;;4997900;28;20032;-77
2023/01/06 11:24:19;;;;;;;8.68;4.28;;;409.90;1868.80;;;;;;4998989;28;20022;-79
2023/01/06 11:27:15;;;;;;;8.40;4.03;;;410.00;1843.20;;;;;;5013384;28;20061;-78
2023/01/06 11:29:40;;;;;;;11.65;5.05;;;409.70;1894.40;;;;;;5016770;28;20180;-81
2023/01/06 11:32:23;;;;;;;11.07;5.65;;;409.60;1894.40;;;;;;5016057;28;20535;-79
2023/01/06 11:35:01;;;;;;;12.02;5.65;;;409.70;1868.80;;;;;;4993581;28;20057;-79
2023/01/06 11:37:33;;;;;;;11.63;4.57;;;409.60;1894.40;;;;;;5026347;28;20438;-76
2023/01/06 11:40:01;;;;;;;14.88;7.15;;;409.90;1894.40;;;;;;5024130;28;20034;-78
2023/01/06 11:42:26;;;;;;;13.13;5.63;;;409.70;1920.00;;;;;;5007716;28;20083;-76
2023/01/06 11:44:52;;;;;;;9.93;4.63;;;409.80;1894.40;;;;;;4994895;28;20468;-76
2023/01/06 11:47:23;;;;;;;15.65;7.50;;;409.60;1920.00;;;;;;5021639;28;20422;-78
2023/01/06 11:49:53;;;;;;;13.30;4.93;;;384.90;1868.80;;;;;;5018328;28;20531;-77
2023/01/06 11:52:30;;;;;;;9.85;3.70;;;384.60;1894.40;;;;;;5016663;28;20042;-77
2023/01/06 11:54:57;;;;;;;10.77;4.18;;;384.70;1894.40;;;;;;5016708;28;20033;-78
2023/01/06 11:57:53;;;;;;;12.80;6.50;;;384.90;1894.40;;;;;;5031052;28;20546;-77
2023/01/06 12:00:45;;;;;;;9.93;4.43;;;384.80;1945.60;;;;;;5031164;28;20028;-77
2023/01/06 12:03:20;;;;;;;11.80;6.63;;;384.70;1945.60;;;;;;5011246;28;20021;-77
2023/01/06 12:06:25;;;;;;;15.73;6.93;;;384.70;1971.20;;;;;;5038428;28;20025;-78
2023/01/06 12:08:50;;;;;;;8.05;3.92;;;384.70;1945.60;;;;;;5014224;28;20022;-80
2023/01/06 12:11:55;;;;;;;13.60;5.45;;;384.40;1945.60;;;;;;5038260;28;20024;-80
2023/01/06 12:14:24;;;;;;;11.32;5.05;;;384.30;1971.20;;;;;;4935714;29;20495;-82
2023/01/06 12:17:26;;;;;;;13.52;5.75;;;384.20;2048.00;;;;;;4952615;28;20410;-79
2023/01/06 12:19:57;;;;;;;11.02;4.95;;;384.30;2022.40;;;;;;4931138;28;20039;-80
2023/01/06 12:22:26;;;;;;;11.43;4.82;;;384.40;2048.00;;;;;;4951570;28;20586;-79
2023/01/06 12:24:56;;;;;;;9.48;4.07;;;384.20;2048.00;;;;;;4936908;29;20494;-79
2023/01/06 12:27:47;;;;;;;10.35;5.05;;;384.10;2073.60;;;;;;4936431;28;20023;-78
2023/01/06 12:30:22;;;;;;;16.00;6.30;;;384.00;2150.40;;;;;;4949840;28;20039;-79
2023/01/06 12:32:51;;;;;;;14.15;4.85;;;384.00;2201.60;;;;;;4936123;29;20490;-79
2023/01/06 12:35:23;;;;;;;11.35;5.70;;;384.00;2150.40;;;;;;4951563;28;20106;-80
2023/01/06 12:38:01;;;;;;;9.80;5.82;;;359.30;2176.00;;;;;;4951758;28;20461;-79
2023/01/06 12:40:53;;;;;;;16.63;6.47;;;359.20;2201.60;;;;;;4935487;29;20031;-83
2023/01/06 12:43:27;;;;;;;14.93;5.88;;;359.20;2176.00;;;;;;4927015;29;20053;-80
2023/01/06 12:46:20;;;;;;;14.45;4.60;;;359.20;2124.80;;;;;;5024152;28;20036;-83